Time;durP1;ratioP1;P1;durP2;ratioP2;P2;SDS_P1;SDS_P2;PMS_P1;PMS_P2;Temp;Humidity;BMP_temperature;BMP_pressure;BME280_temperature;BME280_humidity;BME280_pressure;Samples;Min_cycle;Max_cycle;Signal;HPM_P1;HPM_P2
2023/10/17 00:00:12;;;;;;;3.77;1.53;;;;;;;4.16;100.00;100858.09;4982266;28;20209;-69
2023/10/17 00:02:40;;;;;;;4.33;1.57;;;;;;;4.17;100.00;100852.03;4986246;28;20221;-70
2023/10/17 00:05:11;;;;;;;2.10;1.20;;;;;;;4.14;100.00;100851.88;4984564;28;20711;-71
2023/10/17 00:07:43;;;;;;;1.97;1.30;;;;;;;4.14;100.00;100848.38;4981891;28;20758;-69
2023/10/17 00:10:15;;;;;;;2.77;1.20;;;;;;;4.14;100.00;100848.38;4986313;28;20229;-70
2023/10/17 00:12:44;;;;;;;2.53;1.40;;;;;;;4.42;100.00;100854.06;4980772;28;20685;-70
2023/10/17 00:15:35;;;;;;;3.40;1.57;;;;;;;4.47;100.00;100851.63;4985464;28;20561;-70
2023/10/17 00:18:19;;;;;;;2.40;1.87;;;;;;;4.50;100.00;100851.78;4980903;28;20697;-70
2023/10/17 00:20:50;;;;;;;4.30;1.40;;;;;;;4.49;100.00;100855.22;4982845;28;20596;-71
2023/10/17 00:23:20;;;;;;;1.57;1.30;;;;;;;4.49;100.00;100863.09;4983247;28;20220;-70
2023/10/17 00:25:49;;;;;;;4.30;1.40;;;;;;;4.48;100.00;100853.44;4983714;28;20201;-70
2023/10/17 00:28:20;;;;;;;2.73;1.57;;;;;;;4.48;100.00;100842.94;4984078;28;20300;-71
2023/10/17 00:30:48;;;;;;;1.50;1.20;;;;;;;4.49;100.00;100844.72;4986936;28;20208;-70
2023/10/17 00:33:20;;;;;;;2.30;1.20;;;;;;;4.48;100.00;100845.56;4984246;28;20209;-70
2023/10/17 00:35:47;;;;;;;1.70;1.30;;;;;;;4.44;100.00;100835.75;4984499;28;20205;-70
2023/10/17 00:38:15;;;;;;;3.87;1.33;;;;;;;4.44;100.00;100834.03;4984356;28;20226;-72
2023/10/17 00:40:51;;;;;;;5.30;1.37;;;;;;;4.32;100.00;100834.34;4984888;28;20276;-70
2023/10/17 00:43:19;;;;;;;1.70;1.50;;;;;;;4.28;100.00;100832.44;4984055;28;20230;-69
2023/10/17 00:45:46;;;;;;;2.07;1.30;;;;;;;4.16;100.00;100844.97;4982930;28;20216;-70
2023/10/17 00:48:22;;;;;;;2.43;1.30;;;;;;;4.13;100.00;100838.72;4985347;28;20231;-70
2023/10/17 00:50:53;;;;;;;2.00;1.37;;;;;;;3.95;100.00;100838.72;4982833;28;20201;-70
2023/10/17 00:53:20;;;;;;;2.23;1.30;;;;;;;3.76;100.00;100835.25;4980634;28;20732;-70
2023/10/17 00:55:56;;;;;;;2.90;1.23;;;;;;;3.62;100.00;100841.56;4982501;28;20308;-71
2023/10/17 00:58:24;;;;;;;2.30;1.23;;;;;;;3.47;100.00;100836.47;4985771;28;20243;-71
2023/10/17 01:00:59;;;;;;;2.07;1.10;;;;;;;3.38;100.00;100828.16;4984924;28;20211;-70
2023/10/17 01:03:29;;;;;;;3.00;1.23;;;;;;;3.29;100.00;100821.59;4980115;28;20271;-71
2023/10/17 01:06:14;;;;;;;1.80;1.30;;;;;;;3.20;100.00;100829.84;4982647;28;20201;-71
2023/10/17 01:08:49;;;;;;;1.60;1.23;;;;;;;3.10;100.00;100819.75;4981258;28;20228;-70
2023/10/17 01:11:20;;;;;;;1.87;1.40;;;;;;;3.04;100.00;100822.06;4982085;28;20219;-70
2023/10/17 01:13:55;;;;;;;1.33;1.20;;;;;;;2.96;100.00;100819.09;4980882;28;20619;-70
2023/10/17 01:16:22;;;;;;;2.73;1.40;;;;;;;2.92;100.00;100811.91;4982526;28;20210;-71
2023/10/17 01:18:48;;;;;;;2.53;1.60;;;;;;;2.84;100.00;100810.63;4980387;28;20236;-71
2023/10/17 01:21:19;;;;;;;2.50;1.37;;;;;;;2.77;100.00;100814.63;4977929;28;20699;-72
2023/10/17 01:23:46;;;;;;;3.00;1.10;;;;;;;2.74;100.00;100808.34;4979450;28;20228;-71
2023/10/17 01:26:20;;;;;;;2.87;1.40;;;;;;;2.73;100.00;100824.84;4982805;28;20197;-71
2023/10/17 01:28:48;;;;;;;1.57;1.10;;;;;;;2.78;100.00;100820.75;4983039;28;20314;-70
2023/10/17 01:31:16;;;;;;;1.90;1.23;;;;;;;2.74;100.00;100827.53;4986695;28;20201;-70
2023/10/17 01:33:43;;;;;;;2.03;1.30;;;;;;;2.75;100.00;100841.50;4983716;28;20197;-70
2023/10/17 01:36:12;;;;;;;2.03;1.10;;;;;;;2.95;100.00;100845.16;4980609;28;20291;-70
2023/10/17 01:38:42;;;;;;;2.47;1.37;;;;;;;3.01;100.00;100841.13;4983760;28;20992;-70
2023/10/17 01:41:11;;;;;;;5.23;1.60;;;;;;;2.87;100.00;100841.28;4985392;28;20322;-70
2023/10/17 01:43:45;;;;;;;1.53;1.10;;;;;;;2.77;100.00;100845.09;4980608;28;20224;-70
2023/10/17 01:46:21;;;;;;;4.57;1.30;;;;;;;2.71;100.00;100843.06;4978911;28;20296;-71
2023/10/17 01:48:49;;;;;;;3.30;1.40;;;;;;;2.68;100.00;100840.31;4985415;28;20605;-71
2023/10/17 01:51:16;;;;;;;1.40;1.30;;;;;;;2.67;100.00;100841.13;4979593;28;20201;-70
2023/10/17 01:53:48;;;;;;;1.87;1.20;;;;;;;2.67;100.00;100835.00;4984080;28;20196;-70
2023/10/17 01:56:15;;;;;;;2.13;1.43;;;;;;;2.65;100.00;100828.78;4984921;28;20577;-70
2023/10/17 01:58:45;;;;;;;3.70;1.40;;;;;;;2.62;100.00;100831.25;4984214;28;20246;-70
2023/10/17 02:01:14;;;;;;;1.73;1.27;;;;;;;2.62;100.00;100828.63;4983862;28;20210;-70
2023/10/17 02:03:40;;;;;;;2.07;1.33;;;;;;;2.63;100.00;100836.56;4982472;28;20713;-71
2023/10/17 02:06:13;;;;;;;3.27;1.33;;;;;;;2.61;100.00;100835.56;4986849;28;20632;-70
2023/10/17 02:08:42;;;;;;;3.87;1.20;;;;;;;2.57;100.00;100836.25;4985415;28;20233;-71
2023/10/17 02:11:12;;;;;;;1.70;1.33;;;;;;;2.57;100.00;100838.84;4983381;28;20212;-70
2023/10/17 02:13:41;;;;;;;1.90;1.30;;;;;;;2.55;100.00;100837.88;4980717;28;20669;-70
2023/10/17 02:16:10;;;;;;;1.73;1.30;;;;;;;2.57;100.00;100832.72;4978020;28;20203;-70
2023/10/17 02:18:37;;;;;;;1.77;1.40;;;;;;;2.60;100.00;100823.31;4982318;28;20614;-70
2023/10/17 02:21:06;;;;;;;2.03;1.50;;;;;;;2.71;100.00;100811.69;4983441;28;20802;-70
2023/10/17 02:23:51;;;;;;;3.00;1.60;;;;;;;2.74;100.00;100813.56;4984741;28;20287;-71
2023/10/17 02:26:25;;;;;;;2.07;1.30;;;;;;;2.88;100.00;100812.56;4986125;28;20256;-70
2023/10/17 02:29:06;;;;;;;2.60;1.23;;;;;;;3.00;100.00;100817.50;4981833;28;20221;-70
2023/10/17 02:31:33;;;;;;;2.93;1.50;;;;;;;3.03;100.00;100813.34;4981469;28;20207;-71
2023/10/17 02:33:59;;;;;;;5.33;1.30;;;;;;;3.02;100.00;100808.91;4981489;28;20209;-70
2023/10/17 02:36:26;;;;;;;2.70;1.40;;;;;;;3.02;100.00;100813.25;4984282;28;20208;-70
2023/10/17 02:38:52;;;;;;;1.80;1.40;;;;;;;2.99;100.00;100807.88;4981455;28;20310;-71
2023/10/17 02:41:19;;;;;;;2.53;1.57;;;;;;;2.95;100.00;100806.81;4983370;28;20208;-70
2023/10/17 02:43:47;;;;;;;2.50;1.50;;;;;;;2.95;100.00;100800.69;4982294;28;20285;-70
2023/10/17 02:46:14;;;;;;;4.53;1.60;;;;;;;2.93;100.00;100798.00;4978933;28;20668;-70
2023/10/17 02:48:47;;;;;;;5.53;1.47;;;;;;;2.95;100.00;100801.59;4982735;28;20225;-72
2023/10/17 02:53:51;;;;;;;1.83;1.40;;;;;;;3.06;100.00;100809.97;4980745;28;20239;-70
2023/10/17 02:56:18;;;;;;;1.67;1.20;;;;;;;3.08;100.00;100801.38;4985314;28;20201;-70
2023/10/17 02:58:50;;;;;;;2.40;1.33;;;;;;;3.26;100.00;100798.78;4984343;28;20231;-71
2023/10/17 03:01:18;;;;;;;3.93;1.47;;;;;;;3.41;100.00;100790.75;4985848;28;20287;-70
2023/10/17 03:03:51;;;;;;;2.60;1.47;;;;;;;3.63;100.00;100788.38;4983912;28;20213;-69
2023/10/17 03:06:18;;;;;;;2.90;1.57;;;;;;;3.93;100.00;100782.75;4987686;28;20255;-70
2023/10/17 03:08:51;;;;;;;3.57;1.63;;;;;;;3.95;100.00;100781.97;4982809;28;20693;-70
2023/10/17 03:11:27;;;;;;;1.40;1.10;;;;;;;3.93;100.00;100782.75;4979365;28;20202;-70
2023/10/17 03:13:53;;;;;;;3.20;1.80;;;;;;;3.91;100.00;100782.66;4984206;28;20304;-71
2023/10/17 03:16:25;;;;;;;2.73;1.60;;;;;;;3.96;100.00;100775.91;4988104;28;20204;-71
2023/10/17 03:18:56;;;;;;;2.63;1.67;;;;;;;3.98;100.00;100782.13;4987617;28;20708;-70
2023/10/17 03:21:33;;;;;;;2.33;1.50;;;;;;;4.00;100.00;100779.56;4982964;28;20215;-70
2023/10/17 03:24:01;;;;;;;3.83;1.53;;;;;;;4.10;100.00;100781.81;4984287;28;20220;-71
2023/10/17 03:26:35;;;;;;;3.03;1.90;;;;;;;4.26;100.00;100771.16;4987581;28;20211;-71
2023/10/17 03:29:13;;;;;;;4.37;1.63;;;;;;;4.34;100.00;100776.75;4986209;28;20209;-70
2023/10/17 03:31:42;;;;;;;3.80;1.50;;;;;;;4.36;100.00;100762.88;4981899;28;20823;-70
2023/10/17 03:34:12;;;;;;;5.00;1.50;;;;;;;4.40;100.00;100774.38;4987557;28;20201;-70
2023/10/17 03:36:41;;;;;;;2.10;1.37;;;;;;;4.38;100.00;100769.09;4984414;28;20677;-70
2023/10/17 03:39:21;;;;;;;2.90;1.50;;;;;;;4.50;100.00;100758.25;4982216;28;20546;-70
2023/10/17 03:41:49;;;;;;;2.07;1.50;;;;;;;4.63;100.00;100759.66;4985688;28;20212;-70
2023/10/17 03:44:15;;;;;;;9.03;1.60;;;;;;;4.70;100.00;100752.13;4988029;28;20220;-70
2023/10/17 03:46:46;;;;;;;2.17;1.50;;;;;;;4.83;100.00;100744.78;4986565;28;20288;-70
2023/10/17 03:49:18;;;;;;;2.47;1.47;;;;;;;4.75;100.00;100743.53;4984687;28;20211;-70
2023/10/17 03:51:54;;;;;;;3.43;1.37;;;;;;;4.78;100.00;100746.28;4979880;28;20212;-71
2023/10/17 03:54:22;;;;;;;1.97;1.30;;;;;;;4.71;100.00;100746.03;4985375;28;20205;-72
2023/10/17 03:56:56;;;;;;;2.97;1.57;;;;;;;4.66;100.00;100760.69;4986835;28;20627;-70
2023/10/17 03:59:38;;;;;;;3.90;1.40;;;;;;;4.73;100.00;100761.84;4984059;28;20212;-71
2023/10/17 04:02:05;;;;;;;2.80;1.53;;;;;;;4.67;100.00;100774.72;4985145;28;20209;-71
2023/10/17 04:04:47;;;;;;;3.10;1.40;;;;;;;4.65;100.00;100771.13;4986488;28;20225;-69
2023/10/17 04:07:16;;;;;;;1.40;1.20;;;;;;;4.63;100.00;100770.16;4982881;28;20230;-70
2023/10/17 04:12:48;;;;;;;2.50;1.40;;;;;;;4.67;100.00;100779.94;4987073;28;20236;-70
2023/10/17 04:15:18;;;;;;;4.07;1.50;;;;;;;4.68;100.00;100785.25;4982768;28;20200;-70
2023/10/17 04:17:48;;;;;;;4.80;1.40;;;;;;;4.76;100.00;100775.09;4983254;28;20239;-72
2023/10/17 04:20:16;;;;;;;4.10;1.80;;;;;;;4.88;100.00;100777.38;4985712;28;20232;-70
2023/10/17 04:22:43;;;;;;;3.83;1.40;;;;;;;4.93;100.00;100774.09;4987866;28;20380;-72
2023/10/17 04:27:55;;;;;;;2.70;2.03;;;;;;;5.10;100.00;100780.03;4983934;28;20229;-70
2023/10/17 04:30:30;;;;;;;2.77;1.60;;;;;;;5.12;100.00;100778.38;4982401;28;20236;-70
2023/10/17 04:33:09;;;;;;;1.93;1.50;;;;;;;5.17;100.00;100779.44;4982609;28;20221;-70
2023/10/17 04:35:36;;;;;;;2.27;1.50;;;;;;;5.25;100.00;100772.81;4982714;28;20204;-70
2023/10/17 04:38:11;;;;;;;7.83;2.00;;;;;;;5.27;100.00;100780.75;4987331;28;20227;-70
2023/10/17 04:40:42;;;;;;;4.80;1.53;;;;;;;5.26;100.00;100794.72;4984734;28;20208;-70
2023/10/17 04:45:44;;;;;;;1.33;1.20;;;;;;;5.13;100.00;100787.13;4980273;28;20824;-72
2023/10/17 04:48:11;;;;;;;3.63;1.60;;;;;;;5.01;100.00;100793.69;4987331;28;20316;-71
2023/10/17 04:50:44;;;;;;;3.83;1.70;;;;;;;4.99;100.00;100789.19;4986654;28;20205;-70
2023/10/17 04:53:28;;;;;;;4.70;1.70;;;;;;;4.95;100.00;100777.69;4985539;28;20297;-70
2023/10/17 04:56:11;;;;;;;4.97;1.80;;;;;;;4.87;100.00;100781.72;4985890;28;20205;-70
2023/10/17 04:58:42;;;;;;;2.90;1.60;;;;;;;4.92;100.00;100781.91;4983434;28;20229;-70
2023/10/17 05:01:41;;;;;;;3.77;1.80;;;;;;;4.83;100.00;100778.91;4980271;28;20211;-70
2023/10/17 06:18:38;;;;;;;4.60;1.83;;;;;;;5.37;100.00;100768.88;4980636;28;20286;-69
2023/10/17 06:21:07;;;;;;;2.60;1.73;;;;;;;5.44;100.00;100771.81;4988077;28;20291;-69
2023/10/17 06:30:06;;;;;;;3.03;1.60;;;;;;;5.63;100.00;100782.22;4986595;28;20660;-69
2023/10/17 06:34:38;;;;;;;2.60;1.83;;;;;;;5.60;100.00;100775.94;4988326;28;20205;-70
2023/10/17 06:37:07;;;;;;;2.47;1.70;;;;;;;5.69;100.00;100784.19;4985789;28;20229;-70
2023/10/17 06:39:49;;;;;;;2.97;1.70;;;;;;;5.74;100.00;100769.50;4990524;28;20202;-70
2023/10/17 06:42:27;;;;;;;2.63;1.80;;;;;;;5.98;100.00;100766.94;4988348;28;20544;-70
2023/10/17 06:44:53;;;;;;;2.93;1.70;;;;;;;6.11;100.00;100763.94;4983409;28;20276;-70
2023/10/17 06:47:31;;;;;;;3.93;1.80;;;;;;;6.19;100.00;100769.47;4987639;28;20775;-70
2023/10/17 06:50:17;;;;;;;3.40;1.93;;;;;;;6.24;100.00;100760.00;4989197;28;20200;-69
2023/10/17 06:55:22;;;;;;;3.00;1.90;;;;;;;6.39;100.00;100775.44;4984399;28;20264;-70
2023/10/17 06:57:50;;;;;;;4.27;1.93;;;;;;;6.48;100.00;100762.66;4989007;28;20228;-70
2023/10/17 07:03:05;;;;;;;6.00;2.80;;;;;;;6.75;100.00;100773.22;4984407;28;20573;-70
2023/10/17 07:05:35;;;;;;;6.03;2.03;;;;;;;6.91;100.00;100772.94;4990079;28;20803;-69
2023/10/17 07:08:02;;;;;;;3.70;2.30;;;;;;;6.99;100.00;100778.47;4990940;28;20270;-70
2023/10/17 07:13:41;;;;;;;5.57;2.47;;;;;;;7.16;100.00;100769.38;4988842;28;20209;-70
2023/10/17 07:16:11;;;;;;;6.20;2.43;;;;;;;7.27;100.00;100759.22;4985388;28;20211;-70
2023/10/17 07:23:45;;;;;;;5.90;2.33;;;;;;;7.50;100.00;100767.00;4985121;28;20750;-69
2023/10/17 07:26:35;;;;;;;5.13;2.53;;;;;;;7.58;100.00;100777.75;4989091;28;20258;-69
2023/10/17 07:29:05;;;;;;;4.73;2.53;;;;;;;7.59;99.87;100789.19;4986076;28;20226;-69
2023/10/17 07:31:32;;;;;;;5.00;2.20;;;;;;;7.71;100.00;100793.13;4989301;28;20206;-69
2023/10/17 07:36:37;;;;;;;3.93;1.77;;;;;;;7.85;94.36;100785.66;4987110;28;20987;-70
2023/10/17 07:39:06;;;;;;;4.13;1.90;;;;;;;7.94;94.85;100790.28;4985386;28;20734;-69
2023/10/17 07:41:36;;;;;;;2.43;1.77;;;;;;;8.04;91.82;100776.56;4975389;28;20199;-70
2023/10/17 07:44:09;;;;;;;3.23;2.07;;;;;;;8.10;91.11;100782.91;4986051;28;20319;-70
2023/10/17 07:46:38;;;;;;;3.97;2.27;;;;;;;8.13;90.28;100783.00;4982974;28;20211;-70
2023/10/17 07:49:05;;;;;;;3.90;2.10;;;;;;;8.15;89.61;100776.03;4982292;28;20470;-69
2023/10/17 07:51:32;;;;;;;4.37;2.27;;;;;;;8.21;90.61;100782.31;4985772;28;20469;-70
2023/10/17 07:53:58;;;;;;;5.73;2.63;;;;;;;8.37;90.78;100777.56;4987339;28;20197;-70
2023/10/17 07:56:26;;;;;;;6.43;2.47;;;;;;;8.47;90.05;100781.38;4986753;28;20204;-69
2023/10/17 07:59:04;;;;;;;4.93;2.10;;;;;;;8.57;88.11;100770.22;4986999;28;20225;-70
2023/10/17 08:01:42;;;;;;;5.13;1.90;;;;;;;8.64;87.20;100768.63;4988758;28;20216;-69
2023/10/17 08:04:17;;;;;;;8.63;2.30;;;;;;;8.65;87.19;100760.75;4985865;28;20311;-69
2023/10/17 08:06:45;;;;;;;6.40;2.23;;;;;;;8.72;86.24;100767.06;4986859;28;20204;-70
2023/10/17 08:09:24;;;;;;;4.47;2.37;;;;;;;8.94;85.36;100782.66;4983053;28;20275;-71
2023/10/17 08:12:13;;;;;;;5.70;2.17;;;;;;;9.05;83.99;100778.53;4985272;28;20846;-70
2023/10/17 08:14:42;;;;;;;6.30;1.97;;;;;;;9.04;82.72;100766.16;4984313;28;20292;-70
2023/10/17 08:17:09;;;;;;;6.80;1.90;;;;;;;9.11;82.64;100760.19;4987700;28;20282;-71
2023/10/17 08:20:00;;;;;;;4.17;1.90;;;;;;;9.15;81.34;100765.53;4983716;28;20209;-71
2023/10/17 08:22:25;;;;;;;6.63;2.23;;;;;;;9.29;82.32;100780.00;4973389;28;20215;-72
2023/10/17 08:24:53;;;;;;;4.40;2.50;;;;;;;9.45;79.95;100773.34;4974633;28;20212;-70
2023/10/17 08:33:11;;;;;;;4.43;1.90;;;;;;;9.52;77.40;100773.50;4981764;28;20205;-70
2023/10/17 08:35:39;;;;;;;4.87;1.93;;;;;;;9.60;77.54;100774.59;4984921;28;20619;-69
2023/10/17 08:38:12;;;;;;;7.40;2.53;;;;;;;9.61;76.72;100773.75;4988296;28;20599;-70
2023/10/17 08:43:20;;;;;;;6.27;2.57;;;;;;;9.78;77.63;100778.53;4983917;28;20205;-70
2023/10/17 08:45:50;;;;;;;6.53;2.50;;;;;;;9.89;75.87;100777.91;4983487;28;20223;-71
2023/10/17 08:48:19;;;;;;;4.80;2.40;;;;;;;10.02;75.53;100779.97;4984888;28;20231;-68
2023/10/17 08:50:47;;;;;;;6.10;2.43;;;;;;;10.13;74.36;100784.59;4985309;28;20675;-70
2023/10/17 08:53:20;;;;;;;4.43;2.30;;;;;;;10.16;72.49;100787.31;4988977;28;20201;-71
2023/10/17 08:55:51;;;;;;;5.07;2.50;;;;;;;9.94;72.57;100794.78;4986569;28;20252;-71
2023/10/17 08:58:24;;;;;;;5.63;1.90;;;;;;;9.87;72.85;100791.97;4983172;28;20217;-70
2023/10/17 09:00:55;;;;;;;3.20;1.83;;;;;;;9.72;74.24;100784.56;4986073;28;21082;-71
2023/10/17 09:03:28;;;;;;;5.23;2.23;;;;;;;9.79;74.30;100789.16;4987650;28;20232;-70
2023/10/17 09:11:14;;;;;;;4.40;1.90;;;;;;;9.63;75.66;100790.56;4986830;28;20203;-70
2023/10/17 09:16:16;;;;;;;6.30;2.27;;;;;;;9.67;74.48;100788.88;4984992;28;20291;-70
2023/10/17 09:18:54;;;;;;;4.83;2.00;;;;;;;9.70;73.98;100789.84;4987685;28;20227;-69
2023/10/17 09:21:20;;;;;;;2.53;1.90;;;;;;;9.74;73.10;100794.34;4987269;28;20213;-71
2023/10/17 09:23:47;;;;;;;3.83;1.80;;;;;;;9.81;72.36;100792.72;4984660;28;20737;-70
2023/10/17 09:26:20;;;;;;;3.27;1.70;;;;;;;9.85;72.71;100785.75;4980562;28;20300;-71
2023/10/17 09:28:47;;;;;;;2.73;1.60;;;;;;;9.85;73.08;100788.38;4984849;28;20222;-71
2023/10/17 09:31:15;;;;;;;3.20;1.90;;;;;;;9.91;74.07;100786.75;4985013;28;20215;-71
2023/10/17 09:33:48;;;;;;;6.07;1.97;;;;;;;9.95;72.52;100785.97;4985271;28;20199;-70
2023/10/17 09:36:17;;;;;;;3.83;2.00;;;;;;;10.03;72.21;100788.81;4982440;28;20194;-70
2023/10/17 09:38:45;;;;;;;4.40;1.90;;;;;;;10.08;73.22;100795.09;4987122;28;20219;-71
2023/10/17 09:41:19;;;;;;;3.00;1.77;;;;;;;10.11;71.87;100791.63;4985328;28;20639;-70
2023/10/17 09:43:47;;;;;;;2.37;1.60;;;;;;;10.04;71.30;100787.94;4987541;28;20209;-71
2023/10/17 09:46:14;;;;;;;4.40;2.10;;;;;;;9.82;71.16;100786.56;4986469;28;20318;-71
2023/10/17 09:48:42;;;;;;;3.40;2.13;;;;;;;9.76;72.04;100785.53;4984361;28;20796;-69
2023/10/17 09:51:25;;;;;;;5.13;2.00;;;;;;;9.82;73.66;100789.22;4984362;28;20289;-69
2023/10/17 09:53:54;;;;;;;3.80;1.70;;;;;;;10.01;73.01;100793.19;4986339;28;20310;-69
2023/10/17 09:56:27;;;;;;;2.90;1.97;;;;;;;10.01;71.77;100788.78;4984204;28;20212;-70
2023/10/17 09:58:59;;;;;;;6.70;2.23;;;;;;;9.93;71.93;100779.75;4987088;28;20238;-68
2023/10/17 10:01:27;;;;;;;5.83;2.50;;;;;;;10.00;72.41;100776.38;4986894;28;20213;-72
2023/10/17 10:04:07;;;;;;;3.43;2.23;;;;;;;9.99;71.12;100779.00;4986316;28;20289;-72
2023/10/17 10:06:36;;;;;;;5.83;2.37;;;;;;;10.11;71.01;100779.28;4987551;28;20205;-72
2023/10/17 10:09:06;;;;;;;3.97;2.20;;;;;;;10.03;70.21;100779.13;4991677;28;20547;-72
2023/10/17 10:11:48;;;;;;;5.33;2.77;;;;;;;10.12;70.36;100770.47;4989579;28;20209;-70
2023/10/17 10:14:15;;;;;;;4.07;2.33;;;;;;;10.25;71.33;100783.13;4986436;28;20205;-69
2023/10/17 10:16:55;;;;;;;6.83;2.83;;;;;;;10.29;70.05;100773.50;4988123;28;20266;-70
2023/10/17 10:19:41;;;;;;;7.80;2.63;;;;;;;10.31;69.54;100767.38;4985906;28;20705;-71
2023/10/17 10:22:10;;;;;;;5.60;2.60;;;;;;;10.40;69.95;100769.31;4990394;28;20232;-71
2023/10/17 10:24:39;;;;;;;3.63;2.40;;;;;;;10.53;70.01;100758.13;4983379;28;20227;-71
2023/10/17 10:27:08;;;;;;;7.07;2.53;;;;;;;10.62;69.09;100765.34;4985660;28;20701;-71
2023/10/17 10:29:35;;;;;;;4.97;2.83;;;;;;;10.75;69.54;100764.69;4983658;28;20237;-71
2023/10/17 10:32:07;;;;;;;5.23;2.90;;;;;;;10.87;69.40;100759.66;4986110;28;20294;-71
2023/10/17 10:34:39;;;;;;;5.90;2.83;;;;;;;11.01;67.72;100749.28;4986267;28;20208;-71
2023/10/17 10:37:08;;;;;;;8.90;2.90;;;;;;;10.86;67.68;100739.31;4986950;28;20220;-70
2023/10/17 10:39:35;;;;;;;4.30;2.77;;;;;;;10.91;67.87;100723.50;4985594;28;20284;-70
2023/10/17 10:42:06;;;;;;;5.67;2.67;;;;;;;10.92;67.71;100725.28;4990148;28;20210;-71
2023/10/17 10:44:40;;;;;;;12.43;3.00;;;;;;;10.90;67.66;100749.09;4987021;28;20245;-70
2023/10/17 10:47:07;;;;;;;7.60;3.10;;;;;;;11.15;68.14;100745.09;4986420;28;20228;-69
2023/10/17 10:49:34;;;;;;;11.70;3.07;;;;;;;11.26;66.81;100745.28;4983990;28;20205;-69
2023/10/17 10:52:00;;;;;;;6.70;2.70;;;;;;;11.30;67.82;100742.72;4986151;28;20202;-69
2023/10/17 10:54:59;;;;;;;6.70;2.70;;;;;;;11.38;65.98;100734.88;4989177;28;20576;-70
2023/10/17 10:57:29;;;;;;;7.87;2.73;;;;;;;11.54;66.15;100715.66;4986709;28;20552;-70
2023/10/17 10:59:55;;;;;;;6.57;2.80;;;;;;;11.52;65.58;100717.41;4987784;28;20214;-70
2023/10/17 11:02:23;;;;;;;3.77;2.23;;;;;;;11.42;65.56;100715.47;4989637;28;20237;-70
2023/10/17 11:04:55;;;;;;;5.13;2.87;;;;;;;11.24;66.30;100708.16;4988441;28;20301;-70
2023/10/17 11:07:23;;;;;;;6.53;2.53;;;;;;;11.27;67.49;100715.25;4983367;28;20220;-69
2023/10/17 11:10:06;;;;;;;6.73;2.60;;;;;;;11.14;66.59;100718.56;4987365;28;20263;-69
2023/10/17 11:12:33;;;;;;;7.07;3.23;;;;;;;11.16;67.08;100701.81;4987574;28;20279;-69
2023/10/17 11:15:26;;;;;;;8.10;3.00;;;;;;;11.03;68.04;100701.59;4984669;28;20200;-70
2023/10/17 11:18:01;;;;;;;7.07;3.00;;;;;;;10.93;69.14;100690.84;4984283;28;20316;-70
2023/10/17 11:20:29;;;;;;;5.70;3.20;;;;;;;11.11;69.69;100686.72;4987836;28;20234;-71
2023/10/17 11:22:56;;;;;;;9.33;3.27;;;;;;;11.20;69.55;100679.78;4987032;28;20727;-71
2023/10/17 11:25:31;;;;;;;9.77;2.80;;;;;;;11.28;69.12;100677.28;4985539;28;20243;-70
2023/10/17 11:28:07;;;;;;;5.30;2.50;;;;;;;11.27;69.11;100689.63;4988522;28;20251;-70
2023/10/17 11:30:42;;;;;;;3.63;2.57;;;;;;;11.28;69.22;100670.22;4989807;28;20216;-69
2023/10/17 11:33:28;;;;;;;5.07;2.50;;;;;;;11.26;68.50;100663.09;4990988;28;20715;-70
2023/10/17 11:35:58;;;;;;;4.50;2.60;;;;;;;11.14;68.52;100653.19;4986378;28;20259;-70
2023/10/17 11:38:37;;;;;;;5.87;2.80;;;;;;;11.13;69.99;100645.22;4988336;28;20240;-70
2023/10/17 11:41:15;;;;;;;4.33;2.70;;;;;;;11.18;71.26;100649.72;4988033;28;20649;-70
2023/10/17 11:43:54;;;;;;;3.53;2.67;;;;;;;11.23;69.82;100652.47;4984119;28;20226;-70
2023/10/17 11:46:31;;;;;;;4.57;2.70;;;;;;;11.20;70.03;100663.88;4987928;28;20221;-70
2023/10/17 11:49:28;;;;;;;4.40;2.63;;;;;;;10.95;70.33;100669.69;4987141;28;20231;-70
2023/10/17 11:52:04;;;;;;;5.60;2.83;;;;;;;10.65;72.04;100665.63;4986977;28;20211;-69
2023/10/17 11:54:32;;;;;;;8.40;3.20;;;;;;;10.75;73.06;100666.69;4983425;28;20217;-69
2023/10/17 11:57:10;;;;;;;7.20;2.73;;;;;;;11.09;72.82;100664.59;4987268;28;20802;-70
2023/10/17 11:59:36;;;;;;;5.20;2.97;;;;;;;11.59;69.92;100660.91;4984682;28;20208;-69
2023/10/17 12:02:03;;;;;;;6.20;2.63;;;;;;;12.11;67.60;100653.66;4983153;28;20677;-69
2023/10/17 12:04:30;;;;;;;7.37;2.70;;;;;;;12.24;66.03;100652.91;4986192;28;20330;-71
2023/10/17 12:06:57;;;;;;;4.47;2.90;;;;;;;12.49;64.79;100648.75;4986317;28;20257;-71
2023/10/17 12:09:24;;;;;;;4.73;2.57;;;;;;;12.44;63.38;100641.63;4985976;28;20221;-70
2023/10/17 12:11:52;;;;;;;4.63;2.90;;;;;;;12.02;65.30;100636.75;4987146;28;20306;-70
2023/10/17 12:14:21;;;;;;;6.40;2.60;;;;;;;12.02;67.25;100642.03;4988450;28;20206;-70
2023/10/17 12:16:54;;;;;;;6.50;2.50;;;;;;;12.03;65.52;100638.53;4980157;28;20207;-70
2023/10/17 12:19:21;;;;;;;6.93;2.67;;;;;;;12.14;65.31;100642.19;4986200;28;20202;-70
2023/10/17 12:21:48;;;;;;;3.93;2.60;;;;;;;11.93;64.84;100637.50;4984848;28;20561;-72
2023/10/17 12:24:28;;;;;;;3.07;2.47;;;;;;;11.95;66.86;100646.38;4986907;28;20207;-72
2023/10/17 12:26:55;;;;;;;6.07;3.03;;;;;;;11.89;65.87;100635.69;4981509;28;20267;-71
2023/10/17 12:29:25;;;;;;;4.90;2.43;;;;;;;12.00;65.85;100636.69;4987600;28;20204;-73
2023/10/17 12:31:55;;;;;;;3.57;2.40;;;;;;;12.20;66.31;100632.50;4984238;28;20205;-72
2023/10/17 12:34:22;;;;;;;3.33;2.27;;;;;;;12.38;65.20;100631.78;4988242;28;20233;-72
2023/10/17 12:36:49;;;;;;;4.63;2.20;;;;;;;12.01;63.95;100629.63;4985916;28;20259;-71
2023/10/17 12:39:16;;;;;;;6.37;2.77;;;;;;;11.92;64.12;100615.38;4984596;28;20199;-73
2023/10/17 12:41:45;;;;;;;5.97;2.60;;;;;;;12.03;64.56;100625.25;4982101;28;20210;-71
2023/10/17 12:44:13;;;;;;;4.77;2.77;;;;;;;12.02;63.41;100628.78;4987747;28;20231;-71
2023/10/17 12:46:42;;;;;;;5.37;2.80;;;;;;;11.97;62.93;100628.69;4981002;28;20225;-72
2023/10/17 12:49:10;;;;;;;5.27;2.20;;;;;;;11.91;63.03;100621.56;4986218;28;20207;-70
2023/10/17 12:51:38;;;;;;;4.87;1.87;;;;;;;11.91;62.82;100631.28;4986829;28;20211;-72
2023/10/17 12:54:07;;;;;;;4.07;2.40;;;;;;;11.81;63.25;100613.47;4986834;28;20559;-70
2023/10/17 12:56:37;;;;;;;5.07;2.30;;;;;;;11.91;63.46;100626.84;4985842;28;20209;-71
2023/10/17 12:59:04;;;;;;;4.70;2.60;;;;;;;11.80;62.75;100624.97;4981936;28;20697;-69
2023/10/17 13:01:30;;;;;;;4.00;2.37;;;;;;;11.95;62.10;100613.63;4986139;28;20670;-71
2023/10/17 13:03:57;;;;;;;4.90;2.47;;;;;;;12.06;62.22;100617.31;4985970;28;20693;-71
2023/10/17 13:06:25;;;;;;;4.03;2.40;;;;;;;12.02;61.58;100604.88;4978715;28;20230;-70
2023/10/17 13:08:56;;;;;;;4.10;2.23;;;;;;;12.19;62.21;100600.63;4984796;28;20313;-70
2023/10/17 13:11:27;;;;;;;4.83;2.50;;;;;;;12.12;60.31;100597.03;4983505;28;20205;-70
2023/10/17 13:13:54;;;;;;;3.47;2.30;;;;;;;12.31;61.37;100600.75;4978382;28;20213;-70
2023/10/17 13:16:23;;;;;;;3.50;2.10;;;;;;;12.48;60.06;100580.56;4986285;28;20246;-70
2023/10/17 13:18:50;;;;;;;3.90;2.20;;;;;;;12.49;61.05;100592.97;4983255;28;20222;-71
2023/10/17 13:21:17;;;;;;;3.37;2.30;;;;;;;12.45;59.64;100587.63;4984529;28;20208;-70
2023/10/17 13:23:47;;;;;;;3.30;2.20;;;;;;;12.53;59.81;100594.75;4984044;28;20591;-72
2023/10/17 13:26:15;;;;;;;6.03;2.40;;;;;;;12.51;59.48;100593.88;4985388;28;20249;-71
2023/10/17 13:28:42;;;;;;;4.37;2.00;;;;;;;12.63;60.38;100589.53;4982995;28;20319;-72
2023/10/17 13:31:14;;;;;;;6.80;2.10;;;;;;;12.76;59.15;100586.06;4985247;28;20200;-71
2023/10/17 13:33:53;;;;;;;4.43;2.17;;;;;;;12.75;60.41;100574.56;4981431;28;20433;-72
2023/10/17 13:36:20;;;;;;;7.23;2.00;;;;;;;12.81;59.03;100579.06;4983185;28;20205;-75
2023/10/17 13:38:46;;;;;;;3.70;2.30;;;;;;;12.92;59.26;100574.69;4980601;28;20242;-75
2023/10/17 13:41:15;;;;;;;3.67;2.10;;;;;;;12.99;58.06;100567.63;4982234;28;20204;-79
2023/10/17 13:43:47;;;;;;;5.43;2.13;;;;;;;12.85;57.44;100578.19;4983267;28;20749;-78
2023/10/17 13:46:16;;;;;;;4.17;1.80;;;;;;;12.74;58.21;100571.88;4980551;28;20611;-76
2023/10/17 13:48:48;;;;;;;5.53;2.20;;;;;;;12.72;58.89;100565.66;4976754;28;20240;-74
2023/10/17 13:51:16;;;;;;;4.00;2.00;;;;;;;12.72;58.54;100563.91;4982839;28;20259;-75